createdAt,value
2024-02-24T00:00:28.430Z,0.00
2024-02-24T00:01:28.438Z,0.00
2024-02-24T00:02:28.507Z,0.00
2024-02-24T00:03:28.428Z,0.00
2024-02-24T00:04:28.520Z,0.00
2024-02-24T00:05:28.481Z,0.00
2024-02-24T00:06:28.434Z,0.00
2024-02-24T00:07:28.440Z,0.00
2024-02-24T00:08:28.413Z,0.00
2024-02-24T00:09:28.428Z,0.00
2024-02-24T00:10:28.420Z,0.00
2024-02-24T00:11:28.453Z,0.00
2024-02-24T00:12:28.352Z,0.00
2024-02-24T00:13:30.116Z,0.00
2024-02-24T00:14:28.391Z,0.00
2024-02-24T00:15:28.357Z,0.00
2024-02-24T00:16:28.407Z,0.00
2024-02-24T00:17:28.382Z,0.00
2024-02-24T00:18:28.365Z,0.00
2024-02-24T00:19:28.405Z,0.00
2024-02-24T00:20:28.451Z,0.00
2024-02-24T00:21:28.683Z,0.00
2024-02-24T00:22:28.318Z,0.00
2024-02-24T00:23:28.340Z,0.00
2024-02-24T00:24:28.285Z,0.00
2024-02-24T00:25:30.170Z,0.00
2024-02-24T00:26:28.299Z,0.00
2024-02-24T00:27:28.256Z,0.00
2024-02-24T00:28:28.295Z,0.00
2024-02-24T00:29:28.309Z,0.00
2024-02-24T00:30:28.261Z,0.00
2024-02-24T00:31:28.234Z,0.00
2024-02-24T00:32:28.290Z,0.00
2024-02-24T00:33:28.328Z,0.00
2024-02-24T00:34:28.355Z,0.00
2024-02-24T00:35:28.284Z,0.00
2024-02-24T00:36:28.205Z,0.00
2024-02-24T00:37:28.230Z,0.00
2024-02-24T00:38:28.225Z,0.00
2024-02-24T00:39:28.224Z,0.00
2024-02-24T00:40:28.204Z,0.00
2024-02-24T00:41:28.267Z,0.00
2024-02-24T00:42:28.194Z,0.00
2024-02-24T00:43:28.163Z,0.00
2024-02-24T00:44:28.165Z,0.00
2024-02-24T00:45:28.176Z,0.00
2024-02-24T00:46:28.154Z,0.00
2024-02-24T00:47:28.228Z,0.00
2024-02-24T00:48:28.197Z,0.00
2024-02-24T00:49:28.181Z,0.00
2024-02-24T00:50:28.125Z,0.00
2024-02-24T00:51:28.124Z,0.00
2024-02-24T00:52:28.129Z,0.00
2024-02-24T00:53:28.170Z,0.00
2024-02-24T00:54:28.100Z,0.00
2024-02-24T00:55:28.088Z,0.00
2024-02-24T00:56:28.096Z,0.00
2024-02-24T00:57:28.098Z,0.00
2024-02-24T00:58:28.071Z,0.00
2024-02-24T00:59:28.130Z,0.00
2024-02-24T01:00:28.071Z,0.00
2024-02-24T01:01:28.137Z,0.00
2024-02-24T01:02:28.098Z,0.00
2024-02-24T01:03:28.037Z,0.00
2024-02-24T01:04:28.122Z,0.00
2024-02-24T01:05:28.124Z,0.00
2024-02-24T01:06:28.015Z,0.00
2024-02-24T01:07:28.095Z,0.00
2024-02-24T01:08:28.098Z,0.00
2024-02-24T01:09:28.155Z,0.00
2024-02-24T01:10:28.065Z,0.00
2024-02-24T01:11:28.029Z,0.00
2024-02-24T01:12:28.366Z,0.00
2024-02-24T01:13:27.997Z,0.00
2024-02-24T01:14:29.020Z,0.00
2024-02-24T01:15:28.026Z,0.00
2024-02-24T01:16:27.944Z,0.00
2024-02-24T01:17:28.039Z,0.00
2024-02-24T01:18:28.035Z,0.00
2024-02-24T01:19:27.936Z,0.00
2024-02-24T01:20:27.978Z,0.00
2024-02-24T01:21:27.949Z,0.00
2024-02-24T01:22:27.917Z,0.00
2024-02-24T01:23:27.941Z,0.00
2024-02-24T01:24:27.945Z,0.00
2024-02-24T01:25:27.904Z,0.00
2024-02-24T01:26:27.927Z,0.00
2024-02-24T01:27:27.889Z,0.00
2024-02-24T01:28:27.869Z,0.00
2024-02-24T01:29:27.963Z,0.00
2024-02-24T01:30:27.933Z,0.00
2024-02-24T01:31:27.886Z,0.00
2024-02-24T01:32:27.980Z,0.00
2024-02-24T01:33:27.904Z,0.00
2024-02-24T01:34:27.992Z,0.00
2024-02-24T01:35:27.879Z,0.00
2024-02-24T01:36:27.832Z,0.00
2024-02-24T01:37:27.807Z,0.00
2024-02-24T01:38:27.849Z,0.00
2024-02-24T01:39:27.828Z,0.00
2024-02-24T01:40:27.800Z,0.00
2024-02-24T01:41:27.839Z,0.00
2024-02-24T01:42:27.789Z,0.00
2024-02-24T01:43:27.769Z,0.00
2024-02-24T01:44:27.803Z,0.00
2024-02-24T01:45:27.789Z,0.00
2024-02-24T01:46:27.764Z,0.00
2024-02-24T01:47:27.821Z,0.00
2024-02-24T01:48:27.843Z,0.00
2024-02-24T01:49:27.836Z,0.00
2024-02-24T01:50:27.794Z,0.00
2024-02-24T01:51:27.730Z,0.00
2024-02-24T01:52:27.729Z,0.00
2024-02-24T01:53:27.738Z,0.00
2024-02-24T01:54:27.751Z,0.00
2024-02-24T01:55:27.710Z,0.00
2024-02-24T01:56:27.728Z,0.00
2024-02-24T01:57:27.725Z,0.00
2024-02-24T01:58:27.734Z,0.00
2024-02-24T01:59:27.793Z,0.00
2024-02-24T02:00:27.662Z,0.00
2024-02-24T02:01:27.654Z,0.00
2024-02-24T02:02:27.701Z,0.00
2024-02-24T02:03:27.658Z,0.00
2024-02-24T02:04:27.697Z,0.00
2024-02-24T02:05:27.715Z,0.00
2024-02-24T02:06:27.679Z,0.00
2024-02-24T02:07:27.678Z,0.00
2024-02-24T02:08:27.646Z,0.00
2024-02-24T02:09:28.640Z,0.00
2024-02-24T02:10:27.588Z,0.00
2024-02-24T02:11:27.653Z,0.00
2024-02-24T02:12:27.745Z,0.00
2024-02-24T02:13:27.661Z,0.00
2024-02-24T02:14:27.633Z,0.00
2024-02-24T02:15:27.564Z,0.00
2024-02-24T02:16:27.576Z,0.00
2024-02-24T02:17:27.620Z,0.00
2024-02-24T02:18:29.634Z,0.00
2024-02-24T02:19:27.584Z,0.00
2024-02-24T02:20:27.581Z,0.00
2024-02-24T02:21:28.169Z,0.00
2024-02-24T02:22:27.519Z,0.00
2024-02-24T02:23:27.611Z,0.00
2024-02-24T02:24:27.547Z,0.00
2024-02-24T02:25:27.542Z,0.00
2024-02-24T02:26:27.545Z,0.00
2024-02-24T02:27:27.500Z,0.00
2024-02-24T02:28:27.487Z,0.00
2024-02-24T02:29:27.552Z,0.00
2024-02-24T02:30:27.470Z,0.00
2024-02-24T02:31:28.306Z,0.00
2024-02-24T02:32:27.532Z,0.00
2024-02-24T02:33:27.609Z,0.00
2024-02-24T02:34:27.484Z,0.00
2024-02-24T02:35:27.509Z,0.00
2024-02-24T02:36:27.453Z,0.00
2024-02-24T02:37:27.470Z,0.00
2024-02-24T02:38:27.456Z,0.00
2024-02-24T02:39:27.422Z,0.00
2024-02-24T02:40:27.460Z,0.00
2024-02-24T02:41:27.421Z,0.00
2024-02-24T02:42:27.368Z,0.00
2024-02-24T02:43:27.379Z,0.00
2024-02-24T02:44:27.395Z,0.00
2024-02-24T02:45:27.384Z,0.00
2024-02-24T02:46:27.393Z,0.00
2024-02-24T02:47:27.485Z,0.00
2024-02-24T02:48:27.476Z,0.00
2024-02-24T02:49:28.373Z,0.00
2024-02-24T02:50:27.441Z,0.00
2024-02-24T02:51:27.325Z,0.00
2024-02-24T02:52:27.326Z,0.00
2024-02-24T02:53:27.355Z,0.00
2024-02-24T02:54:27.317Z,0.00
2024-02-24T02:55:27.393Z,0.00
2024-02-24T02:56:27.366Z,0.00
2024-02-24T02:57:27.311Z,0.00
2024-02-24T02:58:27.275Z,0.00
2024-02-24T02:59:27.301Z,0.00
2024-02-24T03:00:27.308Z,0.00
2024-02-24T03:01:27.376Z,0.00
2024-02-24T03:02:27.321Z,0.00
2024-02-24T03:03:27.284Z,0.00
2024-02-24T03:04:27.268Z,0.00
2024-02-24T03:05:27.291Z,0.00
2024-02-24T03:06:27.264Z,0.00
2024-02-24T03:07:27.283Z,0.00
2024-02-24T03:08:27.250Z,0.00
2024-02-24T03:09:27.200Z,0.00
2024-02-24T03:10:27.274Z,0.00
2024-02-24T03:11:27.281Z,0.00
2024-02-24T03:12:27.296Z,0.00
2024-02-24T03:13:27.214Z,0.00
2024-02-24T03:14:27.250Z,0.00
2024-02-24T03:15:27.188Z,0.00
2024-02-24T03:16:28.163Z,0.00
2024-02-24T03:17:27.219Z,0.00
2024-02-24T03:18:27.277Z,0.00
2024-02-24T03:19:27.219Z,0.00
2024-02-24T03:20:27.193Z,0.00
2024-02-24T03:21:27.167Z,0.00
2024-02-24T03:22:27.145Z,0.00
2024-02-24T03:23:27.142Z,0.00
2024-02-24T03:24:27.187Z,0.00
2024-02-24T03:25:27.122Z,0.00
2024-02-24T03:26:27.148Z,0.00
2024-02-24T03:27:27.111Z,0.00
2024-02-24T03:28:27.095Z,0.00
2024-02-24T03:29:27.105Z,0.00
2024-02-24T03:30:27.122Z,0.00
2024-02-24T03:31:27.092Z,0.00
2024-02-24T03:32:27.154Z,0.00
2024-02-24T03:33:27.155Z,0.00
2024-02-24T03:34:27.116Z,0.00
2024-02-24T03:35:27.076Z,0.00
2024-02-24T03:36:27.030Z,0.00
2024-02-24T03:37:27.024Z,0.00
2024-02-24T03:38:27.099Z,0.00
2024-02-24T03:39:27.038Z,0.00
2024-02-24T03:40:27.043Z,0.00
2024-02-24T03:41:27.047Z,0.00
2024-02-24T03:42:26.989Z,0.00
2024-02-24T03:43:26.986Z,0.00
2024-02-24T03:44:27.012Z,0.00
2024-02-24T03:45:27.059Z,0.00
2024-02-24T03:46:26.981Z,0.00
2024-02-24T03:47:27.063Z,0.00
2024-02-24T03:48:27.050Z,0.00
2024-02-24T03:49:27.138Z,0.00
2024-02-24T03:50:26.986Z,0.00
2024-02-24T03:51:26.958Z,0.00
2024-02-24T03:52:26.949Z,0.00
2024-02-24T03:53:26.982Z,0.00
2024-02-24T03:54:26.942Z,0.00
2024-02-24T03:55:26.920Z,0.00
2024-02-24T03:56:26.974Z,0.00
2024-02-24T03:57:26.918Z,0.00
2024-02-24T03:58:26.887Z,0.00
2024-02-24T03:59:26.917Z,0.00
2024-02-24T04:00:26.872Z,0.00
2024-02-24T04:01:26.878Z,0.00
2024-02-24T04:02:26.935Z,0.00
2024-02-24T04:03:26.888Z,0.00
2024-02-24T04:04:26.881Z,0.00
2024-02-24T04:05:26.946Z,0.00
2024-02-24T04:06:26.884Z,0.00
2024-02-24T04:07:26.822Z,0.00
2024-02-24T04:08:26.856Z,0.00
2024-02-24T04:09:26.885Z,0.00
2024-02-24T04:10:26.852Z,0.00
2024-02-24T04:11:26.857Z,0.00
2024-02-24T04:12:26.868Z,0.00
2024-02-24T04:13:26.794Z,0.00
2024-02-24T04:14:26.855Z,0.00
2024-02-24T04:15:26.806Z,0.00
2024-02-24T04:16:26.768Z,0.00
2024-02-24T04:17:26.777Z,0.00
2024-02-24T04:18:26.851Z,0.00
2024-02-24T04:19:26.857Z,0.00
2024-02-24T04:20:26.820Z,0.00
2024-02-24T04:21:26.763Z,0.00
2024-02-24T04:22:26.754Z,0.00
2024-02-24T04:23:26.785Z,0.00
2024-02-24T04:24:26.734Z,0.00
2024-02-24T04:25:26.721Z,0.00
2024-02-24T04:26:26.798Z,0.00
2024-02-24T04:27:26.718Z,0.00
2024-02-24T04:28:26.783Z,0.00
2024-02-24T04:29:26.719Z,0.00
2024-02-24T04:30:27.254Z,0.00
2024-02-24T04:31:26.748Z,0.00
2024-02-24T04:32:26.815Z,0.00
2024-02-24T04:33:27.308Z,0.00
2024-02-24T04:34:26.723Z,0.00
2024-02-24T04:35:26.780Z,0.00
2024-02-24T04:36:26.649Z,0.00
2024-02-24T04:37:26.696Z,0.00
2024-02-24T04:38:26.637Z,0.00
2024-02-24T04:39:26.677Z,0.00
2024-02-24T04:40:26.659Z,0.00
2024-02-24T04:41:26.724Z,0.00
2024-02-24T04:42:26.609Z,0.00
2024-02-24T04:43:26.612Z,0.00
2024-02-24T04:44:26.606Z,0.00
2024-02-24T04:45:26.619Z,0.00
2024-02-24T04:46:26.578Z,0.00
2024-02-24T04:47:26.669Z,0.00
2024-02-24T04:48:26.661Z,0.00
2024-02-24T04:49:26.576Z,0.00
2024-02-24T04:50:26.704Z,0.00
2024-02-24T04:51:26.552Z,0.00
2024-02-24T04:52:26.537Z,0.00
2024-02-24T04:53:26.562Z,0.00
2024-02-24T04:54:26.519Z,0.00
2024-02-24T04:55:26.565Z,0.00
2024-02-24T04:56:26.552Z,0.00
2024-02-24T04:57:26.509Z,0.00
2024-02-24T04:58:26.557Z,0.00
2024-02-24T04:59:26.605Z,0.00
2024-02-24T05:00:26.514Z,0.00
2024-02-24T05:01:26.533Z,0.00
2024-02-24T05:02:26.557Z,0.00
2024-02-24T05:03:26.539Z,0.00
2024-02-24T05:04:26.575Z,0.00
2024-02-24T05:05:26.490Z,0.00
2024-02-24T05:06:26.547Z,0.00
2024-02-24T05:07:26.468Z,0.00
2024-02-24T05:08:26.510Z,0.00
2024-02-24T05:09:26.531Z,0.00
2024-02-24T05:10:26.477Z,0.00
2024-02-24T05:11:26.529Z,0.00
2024-02-24T05:12:26.992Z,0.00
2024-02-24T05:13:26.416Z,0.00
2024-02-24T05:14:26.401Z,0.00
2024-02-24T05:15:26.411Z,0.00
2024-02-24T05:16:26.402Z,0.00
2024-02-24T05:17:26.396Z,0.00
2024-02-24T05:18:26.524Z,0.00
2024-02-24T05:19:26.410Z,0.00
2024-02-24T05:20:26.454Z,0.00
2024-02-24T05:21:26.420Z,0.00
2024-02-24T05:22:26.353Z,0.00
2024-02-24T05:23:26.397Z,0.00
2024-02-24T05:24:26.370Z,0.00
2024-02-24T05:25:26.341Z,0.00
2024-02-24T05:26:26.371Z,0.00
2024-02-24T05:27:26.377Z,0.00
2024-02-24T05:28:26.296Z,0.00
2024-02-24T05:29:26.353Z,0.00
2024-02-24T05:30:26.313Z,0.00
2024-02-24T05:31:26.285Z,0.00
2024-02-24T05:32:26.425Z,0.00
2024-02-24T05:33:26.512Z,0.00
2024-02-24T05:34:26.444Z,0.00
2024-02-24T05:35:26.283Z,0.00
2024-02-24T05:36:26.271Z,0.00
2024-02-24T05:37:26.283Z,0.00
2024-02-24T05:38:26.290Z,0.00
2024-02-24T05:39:26.272Z,0.00
2024-02-24T05:40:26.253Z,0.00
2024-02-24T05:41:26.259Z,0.00
2024-02-24T05:42:26.210Z,0.00
2024-02-24T05:43:26.222Z,0.00
2024-02-24T05:44:26.300Z,0.00
2024-02-24T05:45:26.198Z,0.00
2024-02-24T05:46:26.242Z,0.00
2024-02-24T05:47:26.290Z,0.00
2024-02-24T05:48:26.246Z,0.00
2024-02-24T05:49:26.253Z,0.00
2024-02-24T05:50:26.226Z,0.00
2024-02-24T05:51:26.249Z,0.00
2024-02-24T05:52:26.172Z,0.00
2024-02-24T05:53:26.175Z,0.00
2024-02-24T05:54:26.186Z,0.00
2024-02-24T05:55:26.147Z,0.00
2024-02-24T05:56:26.187Z,0.00
2024-02-24T05:57:26.147Z,0.00
2024-02-24T05:58:27.753Z,0.00
2024-02-24T05:59:26.187Z,0.00
2024-02-24T06:00:26.161Z,0.00
2024-02-24T06:01:26.095Z,0.00
2024-02-24T06:02:26.166Z,0.00
2024-02-24T06:03:26.188Z,0.00
2024-02-24T06:04:26.094Z,0.00
2024-02-24T06:05:26.130Z,0.00
2024-02-24T06:06:26.186Z,0.00
2024-02-24T06:07:26.108Z,0.00
2024-02-24T06:08:26.128Z,0.00
2024-02-24T06:09:26.081Z,0.00
2024-02-24T06:10:26.058Z,0.00
2024-02-24T06:11:26.143Z,0.00
2024-02-24T06:12:26.060Z,0.00
2024-02-24T06:13:26.065Z,0.00
2024-02-24T06:14:26.041Z,0.00
2024-02-24T06:15:26.073Z,0.00
2024-02-24T06:16:26.035Z,0.00
2024-02-24T06:17:26.048Z,0.00
2024-02-24T06:18:26.153Z,0.00
2024-02-24T06:19:26.009Z,0.00
2024-02-24T06:20:26.036Z,0.00
2024-02-24T06:21:26.069Z,0.00
2024-02-24T06:22:26.030Z,0.00
2024-02-24T06:23:26.068Z,0.00
2024-02-24T06:24:26.011Z,0.00
2024-02-24T06:25:25.991Z,0.00
2024-02-24T06:26:26.070Z,0.00
2024-02-24T06:27:25.962Z,0.00
2024-02-24T06:28:26.025Z,0.00
2024-02-24T06:29:26.019Z,0.00
2024-02-24T06:30:25.945Z,0.00
2024-02-24T06:31:25.995Z,0.00
2024-02-24T06:32:26.017Z,0.00
2024-02-24T06:33:26.077Z,5.62
2024-02-24T06:34:25.948Z,5.62
2024-02-24T06:35:26.929Z,5.62
2024-02-24T06:36:25.884Z,5.62
2024-02-24T06:37:25.921Z,5.62
2024-02-24T06:38:25.957Z,5.62
2024-02-24T06:39:25.954Z,5.62
2024-02-24T06:40:33.193Z,11.25
2024-02-24T06:41:28.880Z,11.25
2024-02-24T06:42:25.874Z,16.88
2024-02-24T06:43:25.861Z,16.88
2024-02-24T06:44:25.889Z,11.25
2024-02-24T06:45:25.923Z,11.25
2024-02-24T06:46:25.820Z,11.25
2024-02-24T06:47:29.383Z,16.88
2024-02-24T06:48:25.932Z,16.88
2024-02-24T06:49:25.900Z,16.88
2024-02-24T06:50:25.894Z,16.88
2024-02-24T06:51:25.816Z,11.25
2024-02-24T06:52:25.858Z,11.25
2024-02-24T06:53:25.823Z,11.25
2024-02-24T06:54:25.803Z,11.25
2024-02-24T06:55:25.799Z,11.25
2024-02-24T06:56:25.792Z,11.25
2024-02-24T06:57:25.776Z,11.25
2024-02-24T06:58:25.814Z,16.88
2024-02-24T06:59:25.835Z,16.88
2024-02-24T07:00:25.780Z,16.88
2024-02-24T07:01:25.777Z,16.88
2024-02-24T07:02:25.819Z,16.88
2024-02-24T07:03:25.873Z,22.50
2024-02-24T07:04:25.715Z,22.50
2024-02-24T07:05:25.845Z,28.12
2024-02-24T07:06:27.272Z,28.12
2024-02-24T07:07:25.738Z,33.75
2024-02-24T07:08:25.739Z,33.75
2024-02-24T07:09:25.725Z,33.75
2024-02-24T07:10:25.730Z,33.75
2024-02-24T07:11:25.749Z,33.75
2024-02-24T07:12:25.729Z,33.75
2024-02-24T07:13:25.702Z,39.38
2024-02-24T07:14:25.704Z,45.00
2024-02-24T07:15:26.731Z,45.00
2024-02-24T07:16:25.658Z,50.62
2024-02-24T07:17:25.713Z,50.62
2024-02-24T07:18:25.808Z,56.25
2024-02-24T07:19:25.678Z,61.88
2024-02-24T07:20:25.676Z,67.50
2024-02-24T07:21:25.619Z,67.50
2024-02-24T07:22:25.637Z,73.12
2024-02-24T07:23:25.605Z,73.12
2024-02-24T07:24:25.605Z,73.12
2024-02-24T07:25:25.627Z,73.12
2024-02-24T07:26:25.666Z,73.12
2024-02-24T07:27:25.627Z,78.75
2024-02-24T07:28:25.589Z,78.75
2024-02-24T07:29:25.609Z,84.38
2024-02-24T07:30:25.599Z,95.62
2024-02-24T07:31:25.551Z,95.62
2024-02-24T07:32:25.588Z,101.25
2024-02-24T07:33:25.669Z,101.25
2024-02-24T07:34:25.664Z,106.88
2024-02-24T07:35:25.613Z,101.25
2024-02-24T07:36:25.559Z,101.25
2024-02-24T07:37:25.536Z,112.50
2024-02-24T07:38:25.553Z,151.88
2024-02-24T07:39:25.533Z,174.38
2024-02-24T07:40:25.515Z,253.12
2024-02-24T07:41:25.516Z,270.00
2024-02-24T07:42:25.485Z,253.12
2024-02-24T07:43:25.515Z,286.88
2024-02-24T07:44:25.552Z,405.00
2024-02-24T07:45:25.475Z,236.25
2024-02-24T07:46:26.233Z,219.38
2024-02-24T07:47:25.542Z,270.00
2024-02-24T07:48:25.516Z,264.38
2024-02-24T07:49:25.510Z,247.50
2024-02-24T07:50:25.600Z,241.88
2024-02-24T07:51:25.477Z,253.12
2024-02-24T07:52:25.438Z,286.88
2024-02-24T07:53:25.445Z,270.00
2024-02-24T07:54:25.415Z,258.75
2024-02-24T07:55:25.432Z,281.25
2024-02-24T07:56:25.481Z,309.38
2024-02-24T07:57:25.530Z,298.12
2024-02-24T07:58:25.391Z,286.88
2024-02-24T07:59:25.517Z,270.00
2024-02-24T08:00:25.388Z,225.00
2024-02-24T08:01:26.403Z,241.88
2024-02-24T08:02:26.500Z,281.25
2024-02-24T08:03:26.214Z,236.25
2024-02-24T08:04:25.419Z,236.25
2024-02-24T08:05:25.411Z,247.50
2024-02-24T08:06:25.461Z,236.25
2024-02-24T08:07:25.448Z,208.12
2024-02-24T08:08:25.400Z,185.62
2024-02-24T08:09:25.454Z,185.62
2024-02-24T08:10:25.327Z,191.25
2024-02-24T08:11:25.534Z,185.62
2024-02-24T08:12:25.525Z,163.12
2024-02-24T08:13:25.299Z,163.12
2024-02-24T08:14:25.357Z,185.62
2024-02-24T08:15:25.295Z,202.50
2024-02-24T08:16:25.349Z,196.88
2024-02-24T08:17:25.378Z,213.75
2024-02-24T08:18:26.410Z,230.62
2024-02-24T08:19:25.332Z,230.62
2024-02-24T08:20:25.374Z,236.25
2024-02-24T08:21:25.285Z,230.62
2024-02-24T08:22:25.261Z,230.62
2024-02-24T08:23:26.260Z,219.38
2024-02-24T08:24:25.253Z,213.75
2024-02-24T08:25:25.231Z,208.12
2024-02-24T08:26:25.282Z,208.12
2024-02-24T08:27:25.218Z,185.62
2024-02-24T08:28:25.550Z,163.12
2024-02-24T08:29:25.252Z,151.88
2024-02-24T08:30:26.256Z,146.25
2024-02-24T08:31:25.201Z,146.25
2024-02-24T08:32:25.288Z,151.88
2024-02-24T08:33:26.803Z,157.50
2024-02-24T08:34:25.183Z,151.88
2024-02-24T08:35:25.256Z,140.62
2024-02-24T08:36:25.293Z,140.62
2024-02-24T08:37:25.521Z,146.25
2024-02-24T08:38:25.206Z,163.12
2024-02-24T08:39:25.180Z,174.38
2024-02-24T08:40:26.666Z,191.25
2024-02-24T08:41:25.157Z,196.88
2024-02-24T08:42:25.173Z,196.88
2024-02-24T08:43:25.195Z,230.62
2024-02-24T08:44:25.189Z,236.25
2024-02-24T08:45:25.213Z,213.75
2024-02-24T08:46:25.507Z,196.88
2024-02-24T08:47:25.195Z,191.25
2024-02-24T08:48:25.153Z,174.38
2024-02-24T08:49:25.160Z,163.12
2024-02-24T08:50:25.152Z,157.50
2024-02-24T08:51:25.070Z,146.25
2024-02-24T08:52:32.807Z,140.62
2024-02-24T08:53:27.080Z,129.38
2024-02-24T08:54:25.067Z,118.12
2024-02-24T08:55:25.068Z,106.88
2024-02-24T08:56:25.102Z,101.25
2024-02-24T08:57:25.049Z,90.00
2024-02-24T08:58:25.057Z,95.62
2024-02-24T08:59:25.070Z,95.62
2024-02-24T09:00:25.068Z,95.62
2024-02-24T09:01:25.164Z,95.62
2024-02-24T09:02:25.046Z,112.50
2024-02-24T09:03:25.398Z,129.38
2024-02-24T09:04:26.002Z,157.50
2024-02-24T09:05:25.105Z,180.00
2024-02-24T09:06:25.180Z,202.50
2024-02-24T09:07:25.096Z,236.25
2024-02-24T09:08:25.004Z,247.50
2024-02-24T09:09:24.985Z,253.12
2024-02-24T09:10:25.598Z,275.62
2024-02-24T09:11:25.068Z,281.25
2024-02-24T09:12:25.050Z,275.62
2024-02-24T09:13:25.961Z,264.38
2024-02-24T09:14:25.023Z,219.38
2024-02-24T09:15:24.932Z,191.25
2024-02-24T09:16:24.935Z,163.12
2024-02-24T09:17:25.003Z,146.25
2024-02-24T09:18:25.067Z,135.00
2024-02-24T09:19:24.938Z,140.62
2024-02-24T09:20:24.983Z,163.12
2024-02-24T09:21:24.919Z,174.38
2024-02-24T09:22:24.939Z,202.50
2024-02-24T09:23:24.988Z,225.00
2024-02-24T09:24:24.903Z,196.88
2024-02-24T09:25:24.877Z,185.62
2024-02-24T09:26:24.906Z,202.50
2024-02-24T09:27:24.971Z,230.62
2024-02-24T09:28:24.908Z,225.00
2024-02-24T09:29:24.961Z,202.50
2024-02-24T09:30:24.892Z,208.12
2024-02-24T09:31:24.865Z,196.88
2024-02-24T09:32:24.943Z,174.38
2024-02-24T09:33:24.994Z,168.75
2024-02-24T09:34:24.941Z,157.50
2024-02-24T09:35:24.823Z,140.62
2024-02-24T09:36:24.802Z,135.00
2024-02-24T09:37:24.941Z,112.50
2024-02-24T09:38:24.840Z,101.25
2024-02-24T09:39:24.804Z,106.88
2024-02-24T09:40:24.784Z,118.12
2024-02-24T09:41:24.824Z,118.12
2024-02-24T09:42:24.821Z,118.12
2024-02-24T09:43:24.770Z,112.50
2024-02-24T09:44:26.523Z,123.75
2024-02-24T09:45:24.810Z,123.75
2024-02-24T09:46:24.757Z,129.38
2024-02-24T09:47:24.794Z,163.12
2024-02-24T09:48:24.962Z,174.38
2024-02-24T09:49:24.751Z,191.25
2024-02-24T09:50:25.783Z,241.88
2024-02-24T09:51:24.716Z,315.00
2024-02-24T09:52:24.792Z,376.88
2024-02-24T09:53:24.775Z,343.12
2024-02-24T09:54:24.693Z,388.12
2024-02-24T09:55:24.747Z,511.88
2024-02-24T09:56:24.783Z,416.25
2024-02-24T09:57:24.667Z,472.50
2024-02-24T09:58:24.694Z,528.75
2024-02-24T09:59:24.723Z,410.62
2024-02-24T10:00:24.669Z,376.88
2024-02-24T10:01:24.726Z,405.00
2024-02-24T10:02:24.695Z,371.25
2024-02-24T10:03:24.689Z,483.75
2024-02-24T10:04:24.644Z,354.38
2024-02-24T10:05:24.768Z,286.88
2024-02-24T10:06:24.764Z,309.38
2024-02-24T10:07:25.279Z,421.88
2024-02-24T10:08:24.636Z,427.50
2024-02-24T10:09:24.594Z,331.88
2024-02-24T10:10:24.619Z,230.62
2024-02-24T10:11:24.691Z,191.25
2024-02-24T10:12:24.606Z,180.00
2024-02-24T10:13:24.578Z,146.25
2024-02-24T10:14:24.635Z,129.38
2024-02-24T10:15:24.621Z,146.25
2024-02-24T10:16:24.591Z,180.00
2024-02-24T10:17:24.607Z,202.50
2024-02-24T10:18:24.625Z,157.50
2024-02-24T10:19:26.409Z,129.38
2024-02-24T10:20:25.579Z,106.88
2024-02-24T10:21:24.735Z,106.88
2024-02-24T10:22:26.539Z,135.00
2024-02-24T10:23:24.588Z,146.25
2024-02-24T10:24:24.513Z,135.00
2024-02-24T10:25:24.638Z,140.62
2024-02-24T10:26:24.544Z,180.00
2024-02-24T10:27:24.500Z,202.50
2024-02-24T10:28:24.490Z,185.62
2024-02-24T10:29:24.527Z,163.12
2024-02-24T10:30:26.203Z,236.25
2024-02-24T10:31:24.518Z,236.25
2024-02-24T10:32:24.515Z,202.50
2024-02-24T10:33:24.765Z,185.62
2024-02-24T10:34:24.487Z,202.50
2024-02-24T10:35:24.544Z,180.00
2024-02-24T10:36:24.494Z,174.38
2024-02-24T10:37:24.442Z,196.88
2024-02-24T10:38:34.418Z,213.75
2024-02-24T10:39:25.496Z,196.88
2024-02-24T10:40:25.268Z,180.00
2024-02-24T10:41:29.252Z,180.00
2024-02-24T10:42:24.412Z,196.88
2024-02-24T10:43:25.216Z,202.50
2024-02-24T10:44:24.422Z,196.88
2024-02-24T10:45:24.388Z,202.50
2024-02-24T10:46:24.395Z,196.88
2024-02-24T10:47:24.384Z,191.25
2024-02-24T10:48:24.477Z,185.62
2024-02-24T10:49:24.558Z,191.25
2024-02-24T10:50:24.376Z,196.88
2024-02-24T10:51:24.382Z,208.12
2024-02-24T10:52:24.346Z,213.75
2024-02-24T10:53:24.530Z,219.38
2024-02-24T10:54:24.351Z,225.00
2024-02-24T10:55:24.344Z,225.00
2024-02-24T10:56:24.362Z,230.62
2024-02-24T10:57:24.319Z,236.25
2024-02-24T10:58:24.318Z,225.00
2024-02-24T10:59:24.371Z,225.00
2024-02-24T11:00:24.348Z,196.88
2024-02-24T11:01:24.334Z,180.00
2024-02-24T11:02:24.366Z,208.12
2024-02-24T11:03:24.269Z,191.25
2024-02-24T11:04:24.280Z,174.38
2024-02-24T11:05:24.289Z,180.00
2024-02-24T11:06:24.301Z,225.00
2024-02-24T11:07:24.497Z,247.50
2024-02-24T11:08:24.257Z,191.25
2024-02-24T11:09:24.249Z,219.38
2024-02-24T11:10:24.322Z,202.50
2024-02-24T11:11:24.272Z,191.25
2024-02-24T11:12:24.648Z,236.25
2024-02-24T11:13:24.244Z,230.62
2024-02-24T11:14:24.242Z,213.75
2024-02-24T11:15:24.201Z,174.38
2024-02-24T11:16:24.209Z,140.62
2024-02-24T11:17:24.208Z,157.50
2024-02-24T11:18:24.284Z,174.38
2024-02-24T11:19:24.212Z,180.00
2024-02-24T11:20:24.207Z,174.38
2024-02-24T11:21:24.153Z,213.75
2024-02-24T11:22:24.236Z,219.38
2024-02-24T11:23:24.273Z,258.75
2024-02-24T11:24:24.143Z,348.75
2024-02-24T11:25:24.182Z,376.88
2024-02-24T11:26:24.193Z,258.75
2024-02-24T11:27:24.164Z,213.75
2024-02-24T11:28:24.137Z,174.38
2024-02-24T11:29:24.825Z,185.62
2024-02-24T11:30:24.164Z,455.62
2024-02-24T11:31:26.040Z,585.00
2024-02-24T11:32:25.224Z,416.25
2024-02-24T11:33:24.350Z,382.50
2024-02-24T11:34:24.192Z,421.88
2024-02-24T11:35:25.540Z,607.50
2024-02-24T11:36:24.104Z,888.75
2024-02-24T11:37:24.100Z,1288.12
2024-02-24T11:38:24.160Z,1209.38
2024-02-24T11:39:25.847Z,1276.88
2024-02-24T11:40:24.051Z,2475.00
2024-02-24T11:41:24.090Z,2947.50
2024-02-24T11:42:24.029Z,3178.12
2024-02-24T11:43:24.032Z,2745.00
2024-02-24T11:44:27.798Z,669.38
2024-02-24T11:45:24.036Z,455.62
2024-02-24T11:46:24.022Z,624.38
2024-02-24T11:47:27.884Z,2835.00
2024-02-24T11:48:24.269Z,2621.25
2024-02-24T11:49:24.040Z,2030.62
2024-02-24T11:50:24.073Z,1636.88
2024-02-24T11:51:24.023Z,933.75
2024-02-24T11:52:23.985Z,967.50
2024-02-24T11:53:23.996Z,1080.00
2024-02-24T11:54:23.993Z,1220.62
2024-02-24T11:55:24.079Z,2210.62
2024-02-24T11:56:24.008Z,1378.12
2024-02-24T11:57:25.006Z,1451.25
2024-02-24T11:58:24.029Z,2739.38
2024-02-24T11:59:23.943Z,1963.12
2024-02-24T12:00:23.975Z,1125.00
2024-02-24T12:01:24.014Z,3155.62
2024-02-24T12:02:23.963Z,3290.62
2024-02-24T12:03:25.538Z,1119.38
2024-02-24T12:04:24.939Z,2711.25
2024-02-24T12:05:23.981Z,596.25
2024-02-24T12:06:23.971Z,967.50
2024-02-24T12:07:23.966Z,523.12
2024-02-24T12:08:23.909Z,545.62
2024-02-24T12:09:23.889Z,472.50
2024-02-24T12:10:23.883Z,410.62
2024-02-24T12:11:23.942Z,405.00
2024-02-24T12:12:23.960Z,489.38
2024-02-24T12:13:23.841Z,466.88
2024-02-24T12:14:23.864Z,376.88
2024-02-24T12:15:23.816Z,343.12
2024-02-24T12:16:23.845Z,388.12
2024-02-24T12:17:23.932Z,748.12
2024-02-24T12:18:24.262Z,573.75
2024-02-24T12:19:23.860Z,2070.00
2024-02-24T12:20:23.814Z,3448.12
2024-02-24T12:21:23.801Z,489.38
2024-02-24T12:22:23.778Z,1996.88
2024-02-24T12:23:23.813Z,641.25
2024-02-24T12:24:23.776Z,798.75
2024-02-24T12:25:23.888Z,815.62
2024-02-24T12:26:23.794Z,3178.12
2024-02-24T12:27:23.763Z,3375.00
2024-02-24T12:28:23.782Z,720.00
2024-02-24T12:29:23.779Z,348.75
2024-02-24T12:30:23.810Z,421.88
2024-02-24T12:31:23.761Z,866.25
2024-02-24T12:32:23.747Z,810.00
2024-02-24T12:33:23.865Z,1704.38
2024-02-24T12:34:23.876Z,2632.50
2024-02-24T12:35:23.931Z,658.12
2024-02-24T12:36:23.761Z,1535.62
2024-02-24T12:37:23.714Z,2148.75
2024-02-24T12:38:23.729Z,2728.12
2024-02-24T12:39:23.700Z,2761.88
2024-02-24T12:40:23.701Z,1861.88
2024-02-24T12:41:23.670Z,416.25
2024-02-24T12:42:23.662Z,618.75
2024-02-24T12:43:23.651Z,1687.50
2024-02-24T12:44:23.725Z,2109.38
2024-02-24T12:45:23.644Z,506.25
2024-02-24T12:46:23.805Z,883.12
2024-02-24T12:47:23.712Z,2694.38
2024-02-24T12:48:23.825Z,691.88
2024-02-24T12:49:23.710Z,1293.75
2024-02-24T12:50:23.683Z,545.62
2024-02-24T12:51:23.665Z,3105.00
2024-02-24T12:52:23.623Z,1085.62
2024-02-24T12:53:23.600Z,1822.50